Terminal Aerodrome Forecast
Issued by NWS

Home | Current Version | Previous Version | Text Only | Print | Product List | Glossary On
Versions: 1 2 3 4 5 6 7 8 9 10 11 12 13 14 15 16 17 18 19
000
FTUS43 KEAX 231740
TAFSTJ
TAF
KSTJ 231740Z 2318/2418 33008KT 4SM BR OVC010
     FM232300 14008KT P6SM SCT120
     FM240900 12010KT 5SM BR SCT120
     FM241600 15016G26KT P6SM SCT020=

USA.gov is the U.S. government's official web portal to all federal, state and local government web resources and services.